sensor_id;sensor_type;location;lat;lon;timestamp;pressure;altitude;pressure_sealevel;temperature;humidity
2339;BME280;1180;51.438;6.978;2023-01-25T00:02:05;102352.84;;;4.63;75.21
2339;BME280;1180;51.438;6.978;2023-01-25T00:04:31;102343.53;;;4.67;75.20
2339;BME280;1180;51.438;6.978;2023-01-25T00:06:57;102342.69;;;4.68;74.90
2339;BME280;1180;51.438;6.978;2023-01-25T00:09:23;102341.00;;;4.65;74.19
2339;BME280;1180;51.438;6.978;2023-01-25T00:11:49;102342.72;;;4.66;75.04
2339;BME280;1180;51.438;6.978;2023-01-25T00:14:15;102337.59;;;4.75;74.56
2339;BME280;1180;51.438;6.978;2023-01-25T00:16:41;102335.91;;;4.74;74.58
2339;BME280;1180;51.438;6.978;2023-01-25T00:19:08;102330.00;;;4.69;74.79
2339;BME280;1180;51.438;6.978;2023-01-25T00:21:34;102327.41;;;4.79;74.59
2339;BME280;1180;51.438;6.978;2023-01-25T00:24:00;102324.88;;;4.82;74.14
2339;BME280;1180;51.438;6.978;2023-01-25T00:26:28;102324.03;;;4.80;74.53
2339;BME280;1180;51.438;6.978;2023-01-25T00:28:55;102315.53;;;4.79;74.20
2339;BME280;1180;51.438;6.978;2023-01-25T00:34:45;102319.78;;;4.74;73.63
2339;BME280;1180;51.438;6.978;2023-01-25T00:37:12;102320.66;;;4.60;73.88
2339;BME280;1180;51.438;6.978;2023-01-25T00:39:38;102318.97;;;4.55;74.36
2339;BME280;1180;51.438;6.978;2023-01-25T00:42:06;102315.56;;;4.56;74.14
2339;BME280;1180;51.438;6.978;2023-01-25T00:44:32;102313.03;;;4.50;74.60
2339;BME280;1180;51.438;6.978;2023-01-25T00:46:57;102307.97;;;4.48;75.19
2339;BME280;1180;51.438;6.978;2023-01-25T00:49:25;102307.09;;;4.57;74.46
2339;BME280;1180;51.438;6.978;2023-01-25T00:51:51;102310.50;;;4.57;74.86
2339;BME280;1180;51.438;6.978;2023-01-25T00:54:18;102302.88;;;4.51;75.07
2339;BME280;1180;51.438;6.978;2023-01-25T00:56:44;102301.16;;;4.52;74.99
2339;BME280;1180;51.438;6.978;2023-01-25T00:59:10;102307.94;;;4.50;74.89
2339;BME280;1180;51.438;6.978;2023-01-25T01:01:36;102304.56;;;4.38;74.10
2339;BME280;1180;51.438;6.978;2023-01-25T01:04:01;102297.78;;;4.28;75.43
2339;BME280;1180;51.438;6.978;2023-01-25T01:06:26;102304.56;;;4.33;74.92
2339;BME280;1180;51.438;6.978;2023-01-25T01:08:52;102302.03;;;4.41;74.38
2339;BME280;1180;51.438;6.978;2023-01-25T01:11:17;102298.63;;;4.34;74.90
2339;BME280;1180;51.438;6.978;2023-01-25T01:17:06;102295.25;;;4.29;74.94
2339;BME280;1180;51.438;6.978;2023-01-25T01:19:31;102293.56;;;4.36;74.94
2339;BME280;1180;51.438;6.978;2023-01-25T01:21:57;102297.78;;;4.40;74.96
2339;BME280;1180;51.438;6.978;2023-01-25T01:24:22;102302.03;;;4.44;74.35
2339;BME280;1180;51.438;6.978;2023-01-25T01:26:48;102303.69;;;4.21;74.49
2339;BME280;1180;51.438;6.978;2023-01-25T01:29:13;102302.03;;;4.15;75.71
2339;BME280;1180;51.438;6.978;2023-01-25T01:31:38;102301.16;;;4.28;75.26
2339;BME280;1180;51.438;6.978;2023-01-25T01:34:04;102300.34;;;4.40;74.95
2339;BME280;1180;51.438;6.978;2023-01-25T01:36:29;102301.16;;;4.44;74.58
2339;BME280;1180;51.438;6.978;2023-01-25T01:38:56;102292.69;;;4.40;74.79
2339;BME280;1180;51.438;6.978;2023-01-25T01:41:22;102295.25;;;4.37;74.98
2339;BME280;1180;51.438;6.978;2023-01-25T01:43:48;102283.38;;;4.27;74.81
2339;BME280;1180;51.438;6.978;2023-01-25T01:46:33;102282.50;;;4.14;75.19
2339;BME280;1180;51.438;6.978;2023-01-25T01:49:24;102290.97;;;4.07;75.72
2339;BME280;1180;51.438;6.978;2023-01-25T01:51:59;102286.75;;;4.19;75.36
2339;BME280;1180;51.438;6.978;2023-01-25T01:54:43;102290.16;;;4.09;75.37
2339;BME280;1180;51.438;6.978;2023-01-25T01:57:15;102286.78;;;4.27;75.63
2339;BME280;1180;51.438;6.978;2023-01-25T01:59:55;102287.63;;;4.40;74.57
2339;BME280;1180;51.438;6.978;2023-01-25T02:02:24;102284.22;;;4.33;74.92
2339;BME280;1180;51.438;6.978;2023-01-25T02:04:50;102278.28;;;4.24;75.49
2339;BME280;1180;51.438;6.978;2023-01-25T02:07:33;102277.44;;;4.29;74.98
2339;BME280;1180;51.438;6.978;2023-01-25T02:10:00;102278.28;;;4.30;75.63
2339;BME280;1180;51.438;6.978;2023-01-25T02:12:27;102283.38;;;4.36;75.18
2339;BME280;1180;51.438;6.978;2023-01-25T02:14:53;102280.00;;;4.31;75.33
2339;BME280;1180;51.438;6.978;2023-01-25T02:17:25;102284.22;;;4.33;74.74
2339;BME280;1180;51.438;6.978;2023-01-25T02:20:02;102285.09;;;4.34;74.84
2339;BME280;1180;51.438;6.978;2023-01-25T02:22:46;102285.94;;;4.22;74.97
2339;BME280;1180;51.438;6.978;2023-01-25T02:25:15;102270.66;;;4.24;75.03
2339;BME280;1180;51.438;6.978;2023-01-25T02:27:45;102276.63;;;4.32;74.94
2339;BME280;1180;51.438;6.978;2023-01-25T02:30:12;102282.53;;;4.34;74.62
2339;BME280;1180;51.438;6.978;2023-01-25T02:32:37;102283.34;;;4.44;73.74
2339;BME280;1180;51.438;6.978;2023-01-25T02:35:04;102279.13;;;4.29;74.01
2339;BME280;1180;51.438;6.978;2023-01-25T02:37:29;102276.59;;;4.26;74.58
2339;BME280;1180;51.438;6.978;2023-01-25T02:39:55;102279.97;;;4.25;74.87
2339;BME280;1180;51.438;6.978;2023-01-25T02:42:20;102286.78;;;4.18;75.02
2339;BME280;1180;51.438;6.978;2023-01-25T02:44:46;102274.91;;;4.15;75.45
2339;BME280;1180;51.438;6.978;2023-01-25T02:47:11;102271.50;;;4.10;75.16
2339;BME280;1180;51.438;6.978;2023-01-25T02:49:37;102284.22;;;4.05;75.37
2339;BME280;1180;51.438;6.978;2023-01-25T02:52:03;102281.69;;;4.01;75.93
2339;BME280;1180;51.438;6.978;2023-01-25T02:54:29;102281.66;;;4.05;76.21
2339;BME280;1180;51.438;6.978;2023-01-25T02:56:54;102278.28;;;3.99;76.07
2339;BME280;1180;51.438;6.978;2023-01-25T02:59:20;102282.50;;;4.01;76.25
2339;BME280;1180;51.438;6.978;2023-01-25T03:01:46;102281.66;;;4.09;75.51
2339;BME280;1180;51.438;6.978;2023-01-25T03:04:11;102280.81;;;4.10;75.04
2339;BME280;1180;51.438;6.978;2023-01-25T03:06:37;102270.66;;;4.14;75.08
2339;BME280;1180;51.438;6.978;2023-01-25T03:09:05;102276.56;;;4.12;75.34
2339;BME280;1180;51.438;6.978;2023-01-25T03:11:30;102278.31;;;4.16;75.22
2339;BME280;1180;51.438;6.978;2023-01-25T03:13:56;102274.06;;;4.16;75.27
2339;BME280;1180;51.438;6.978;2023-01-25T03:16:21;102269.81;;;4.15;74.82
2339;BME280;1180;51.438;6.978;2023-01-25T03:18:46;102263.03;;;4.14;74.92
2339;BME280;1180;51.438;6.978;2023-01-25T03:21:15;102261.34;;;4.07;75.62
2339;BME280;1180;51.438;6.978;2023-01-25T03:23:41;102265.56;;;4.07;76.13
2339;BME280;1180;51.438;6.978;2023-01-25T03:28:32;102255.41;;;4.13;75.92
2339;BME280;1180;51.438;6.978;2023-01-25T03:30:58;102252.00;;;4.11;75.75
2339;BME280;1180;51.438;6.978;2023-01-25T03:33:23;102249.50;;;4.17;74.87
2339;BME280;1180;51.438;6.978;2023-01-25T03:35:52;102249.47;;;4.22;74.54
2339;BME280;1180;51.438;6.978;2023-01-25T03:38:18;102246.09;;;4.23;74.46
2339;BME280;1180;51.438;6.978;2023-01-25T03:40:47;102246.09;;;4.13;74.71
2339;BME280;1180;51.438;6.978;2023-01-25T03:43:12;102240.16;;;3.97;75.09
2339;BME280;1180;51.438;6.978;2023-01-25T03:45:38;102235.91;;;3.88;75.16
2339;BME280;1180;51.438;6.978;2023-01-25T03:48:03;102235.06;;;3.86;76.06
2339;BME280;1180;51.438;6.978;2023-01-25T03:50:29;102235.09;;;3.82;76.45
2339;BME280;1180;51.438;6.978;2023-01-25T03:52:55;102236.78;;;3.86;76.70
2339;BME280;1180;51.438;6.978;2023-01-25T03:55:26;102236.78;;;4.00;76.05
2339;BME280;1180;51.438;6.978;2023-01-25T03:57:51;102224.06;;;3.92;75.93
2339;BME280;1180;51.438;6.978;2023-01-25T04:00:17;102225.75;;;3.82;76.58
2339;BME280;1180;51.438;6.978;2023-01-25T04:02:47;102219.81;;;3.89;76.95
2339;BME280;1180;51.438;6.978;2023-01-25T04:05:12;102212.22;;;3.77;77.20
2339;BME280;1180;51.438;6.978;2023-01-25T04:07:37;102220.69;;;3.84;77.42
2339;BME280;1180;51.438;6.978;2023-01-25T04:10:04;102209.69;;;3.83;78.01
2339;BME280;1180;51.438;6.978;2023-01-25T04:12:29;102210.50;;;3.92;77.46
2339;BME280;1180;51.438;6.978;2023-01-25T04:14:54;102204.59;;;3.91;77.45
2339;BME280;1180;51.438;6.978;2023-01-25T04:17:20;102205.44;;;3.93;77.72
2339;BME280;1180;51.438;6.978;2023-01-25T04:19:45;102186.81;;;4.03;77.26
2339;BME280;1180;51.438;6.978;2023-01-25T04:22:11;102179.19;;;3.91;77.19
2339;BME280;1180;51.438;6.978;2023-01-25T04:24:37;102188.50;;;3.90;77.82
2339;BME280;1180;51.438;6.978;2023-01-25T04:27:02;102178.34;;;3.90;77.62
2339;BME280;1180;51.438;6.978;2023-01-25T04:29:28;102184.28;;;4.00;77.98
2339;BME280;1180;51.438;6.978;2023-01-25T04:31:53;102179.19;;;3.94;77.37
2339;BME280;1180;51.438;6.978;2023-01-25T04:34:18;102178.34;;;4.00;77.56
2339;BME280;1180;51.438;6.978;2023-01-25T04:36:44;102175.81;;;4.01;77.10
2339;BME280;1180;51.438;6.978;2023-01-25T04:39:09;102173.25;;;4.08;77.09
2339;BME280;1180;51.438;6.978;2023-01-25T04:41:34;102173.25;;;4.06;77.47
2339;BME280;1180;51.438;6.978;2023-01-25T04:44:00;102178.34;;;4.03;77.32
2339;BME280;1180;51.438;6.978;2023-01-25T04:46:25;102169.00;;;4.10;77.42
2339;BME280;1180;51.438;6.978;2023-01-25T04:48:50;102168.19;;;4.09;77.67
2339;BME280;1180;51.438;6.978;2023-01-25T04:51:16;102163.94;;;4.07;77.22
2339;BME280;1180;51.438;6.978;2023-01-25T04:53:41;102161.41;;;4.00;77.69
2339;BME280;1180;51.438;6.978;2023-01-25T04:56:07;102163.09;;;3.97;78.12
2339;BME280;1180;51.438;6.978;2023-01-25T04:58:32;102156.31;;;4.07;77.62
2339;BME280;1180;51.438;6.978;2023-01-25T05:01:01;102155.47;;;4.04;77.88
2339;BME280;1180;51.438;6.978;2023-01-25T05:03:27;102153.78;;;4.03;77.92
2339;BME280;1180;51.438;6.978;2023-01-25T05:05:53;102157.16;;;4.10;77.98
2339;BME280;1180;51.438;6.978;2023-01-25T05:08:18;102158.88;;;4.05;78.29
2339;BME280;1180;51.438;6.978;2023-01-25T05:10:44;102159.72;;;4.04;78.01
2339;BME280;1180;51.438;6.978;2023-01-25T05:13:09;102154.63;;;4.04;78.19
2339;BME280;1180;51.438;6.978;2023-01-25T05:15:35;102160.56;;;4.09;78.03
2339;BME280;1180;51.438;6.978;2023-01-25T05:18:01;102154.59;;;4.19;76.80
2339;BME280;1180;51.438;6.978;2023-01-25T05:20:27;102165.66;;;4.06;76.98
2339;BME280;1180;51.438;6.978;2023-01-25T05:22:53;102162.25;;;3.99;77.66
2339;BME280;1180;51.438;6.978;2023-01-25T05:25:19;102158.03;;;4.03;78.08
2339;BME280;1180;51.438;6.978;2023-01-25T05:28:04;102155.47;;;4.01;78.27
2339;BME280;1180;51.438;6.978;2023-01-25T05:30:32;102152.94;;;4.03;78.65
2339;BME280;1180;51.438;6.978;2023-01-25T05:32:57;102156.31;;;4.10;78.54
2339;BME280;1180;51.438;6.978;2023-01-25T05:35:23;102164.78;;;4.18;77.90
2339;BME280;1180;51.438;6.978;2023-01-25T05:37:48;102159.69;;;4.19;77.44
2339;BME280;1180;51.438;6.978;2023-01-25T05:40:14;102161.41;;;4.11;77.67
2339;BME280;1180;51.438;6.978;2023-01-25T05:42:40;102161.38;;;4.13;78.13
2339;BME280;1180;51.438;6.978;2023-01-25T05:45:06;102156.31;;;4.10;78.37
2339;BME280;1180;51.438;6.978;2023-01-25T05:47:32;102158.84;;;4.10;77.90
2339;BME280;1180;51.438;6.978;2023-01-25T05:49:58;102152.94;;;4.12;77.84
2339;BME280;1180;51.438;6.978;2023-01-25T05:52:23;102150.38;;;4.14;78.21
2339;BME280;1180;51.438;6.978;2023-01-25T05:54:49;102150.38;;;4.15;77.92
2339;BME280;1180;51.438;6.978;2023-01-25T05:57:14;102155.47;;;4.12;78.18
2339;BME280;1180;51.438;6.978;2023-01-25T05:59:40;102151.22;;;4.11;78.48
2339;BME280;1180;51.438;6.978;2023-01-25T06:02:05;102151.22;;;4.14;78.13
2339;BME280;1180;51.438;6.978;2023-01-25T06:04:31;102149.53;;;4.10;78.50
2339;BME280;1180;51.438;6.978;2023-01-25T06:06:56;102145.31;;;4.03;78.76
2339;BME280;1180;51.438;6.978;2023-01-25T06:09:22;102149.56;;;4.07;78.67
2339;BME280;1180;51.438;6.978;2023-01-25T06:11:48;102141.94;;;4.07;78.45
2339;BME280;1180;51.438;6.978;2023-01-25T06:14:13;102147.00;;;4.07;78.81
2339;BME280;1180;51.438;6.978;2023-01-25T06:16:39;102143.63;;;4.02;78.98
2339;BME280;1180;51.438;6.978;2023-01-25T06:19:06;102147.84;;;3.97;78.78
2339;BME280;1180;51.438;6.978;2023-01-25T06:21:32;102151.25;;;3.93;79.36
2339;BME280;1180;51.438;6.978;2023-01-25T06:24:00;102144.47;;;3.95;79.37
2339;BME280;1180;51.438;6.978;2023-01-25T06:26:25;102148.69;;;4.00;79.23
2339;BME280;1180;51.438;6.978;2023-01-25T06:28:51;102143.63;;;4.00;78.80
2339;BME280;1180;51.438;6.978;2023-01-25T06:31:17;102144.47;;;3.82;79.50
2339;BME280;1180;51.438;6.978;2023-01-25T06:33:46;102143.63;;;3.75;80.20
2339;BME280;1180;51.438;6.978;2023-01-25T06:36:14;102140.25;;;3.81;80.60
2339;BME280;1180;51.438;6.978;2023-01-25T06:38:40;102142.75;;;3.97;79.87
2339;BME280;1180;51.438;6.978;2023-01-25T06:41:08;102141.94;;;3.98;79.96
2339;BME280;1180;51.438;6.978;2023-01-25T06:43:35;102142.78;;;4.01;79.99
2339;BME280;1180;51.438;6.978;2023-01-25T06:46:02;102147.00;;;4.02;80.09
2339;BME280;1180;51.438;6.978;2023-01-25T06:48:28;102146.16;;;4.00;80.11
2339;BME280;1180;51.438;6.978;2023-01-25T06:50:59;102147.88;;;3.87;79.92
2339;BME280;1180;51.438;6.978;2023-01-25T06:53:26;102143.63;;;3.83;79.91
2339;BME280;1180;51.438;6.978;2023-01-25T06:58:27;102142.78;;;3.81;80.46
2339;BME280;1180;51.438;6.978;2023-01-25T07:00:57;102148.72;;;3.63;80.69
2339;BME280;1180;51.438;6.978;2023-01-25T07:03:23;102147.88;;;3.66;81.53
2339;BME280;1180;51.438;6.978;2023-01-25T07:05:48;102144.47;;;3.81;81.32
2339;BME280;1180;51.438;6.978;2023-01-25T07:08:15;102141.97;;;3.84;80.54
2339;BME280;1180;51.438;6.978;2023-01-25T07:10:41;102146.19;;;3.82;80.11
2339;BME280;1180;51.438;6.978;2023-01-25T07:13:06;102147.88;;;3.78;80.69
2339;BME280;1180;51.438;6.978;2023-01-25T07:15:31;102144.50;;;3.84;80.72
2339;BME280;1180;51.438;6.978;2023-01-25T07:17:56;102144.47;;;3.82;80.52
2339;BME280;1180;51.438;6.978;2023-01-25T07:20:22;102149.56;;;3.74;80.49
2339;BME280;1180;51.438;6.978;2023-01-25T07:22:47;102138.56;;;3.75;81.05
2339;BME280;1180;51.438;6.978;2023-01-25T07:25:13;102146.19;;;3.71;80.84
2339;BME280;1180;51.438;6.978;2023-01-25T07:27:38;102139.38;;;3.78;80.77
2339;BME280;1180;51.438;6.978;2023-01-25T07:30:04;102139.41;;;3.71;80.75
2339;BME280;1180;51.438;6.978;2023-01-25T07:32:30;102137.72;;;3.78;80.84
2339;BME280;1180;51.438;6.978;2023-01-25T07:34:55;102141.94;;;3.65;81.06
2339;BME280;1180;51.438;6.978;2023-01-25T07:37:21;102134.31;;;3.74;81.06
2339;BME280;1180;51.438;6.978;2023-01-25T07:39:46;102137.72;;;3.67;80.75
2339;BME280;1180;51.438;6.978;2023-01-25T07:42:14;102135.19;;;3.69;81.32
2339;BME280;1180;51.438;6.978;2023-01-25T07:44:40;102128.41;;;3.72;81.34
2339;BME280;1180;51.438;6.978;2023-01-25T07:47:05;102132.63;;;3.64;81.06
2339;BME280;1180;51.438;6.978;2023-01-25T07:49:31;102132.63;;;3.64;80.86
2339;BME280;1180;51.438;6.978;2023-01-25T07:51:56;102121.63;;;3.68;81.06
2339;BME280;1180;51.438;6.978;2023-01-25T07:54:21;102130.94;;;3.52;81.26
2339;BME280;1180;51.438;6.978;2023-01-25T07:56:46;102125.00;;;3.63;82.00
2339;BME280;1180;51.438;6.978;2023-01-25T07:59:13;102122.47;;;3.64;82.01
2339;BME280;1180;51.438;6.978;2023-01-25T08:01:39;102119.94;;;3.63;81.76
2339;BME280;1180;51.438;6.978;2023-01-25T08:04:05;102119.09;;;3.57;81.80
2339;BME280;1180;51.438;6.978;2023-01-25T08:06:34;102124.16;;;3.54;81.55
2339;BME280;1180;51.438;6.978;2023-01-25T08:09:02;102118.22;;;3.61;81.88
2339;BME280;1180;51.438;6.978;2023-01-25T08:11:29;102119.94;;;3.61;81.97
2339;BME280;1180;51.438;6.978;2023-01-25T08:13:55;102113.16;;;3.80;81.33
2339;BME280;1180;51.438;6.978;2023-01-25T08:16:23;102122.47;;;3.78;80.67
2339;BME280;1180;51.438;6.978;2023-01-25T08:18:50;102113.16;;;3.61;81.22
2339;BME280;1180;51.438;6.978;2023-01-25T08:21:16;102115.69;;;3.52;81.70
2339;BME280;1180;51.438;6.978;2023-01-25T08:23:42;102113.16;;;3.61;82.05
2339;BME280;1180;51.438;6.978;2023-01-25T08:26:09;102113.16;;;3.79;81.67
2339;BME280;1180;51.438;6.978;2023-01-25T08:28:35;102110.63;;;3.77;81.70
2339;BME280;1180;51.438;6.978;2023-01-25T08:31:15;102111.47;;;3.78;81.87
2339;BME280;1180;51.438;6.978;2023-01-25T08:33:41;102102.16;;;3.75;81.92
2339;BME280;1180;51.438;6.978;2023-01-25T08:36:09;102111.44;;;3.81;81.62
2339;BME280;1180;51.438;6.978;2023-01-25T08:38:36;102110.63;;;3.83;81.22
2339;BME280;1180;51.438;6.978;2023-01-25T08:41:09;102108.94;;;3.82;81.18
2339;BME280;1180;51.438;6.978;2023-01-25T08:43:36;102105.50;;;3.93;81.05
2339;BME280;1180;51.438;6.978;2023-01-25T08:46:02;102104.69;;;3.92;80.83
2339;BME280;1180;51.438;6.978;2023-01-25T08:48:27;102108.91;;;3.92;81.45
2339;BME280;1180;51.438;6.978;2023-01-25T08:50:52;102102.13;;;3.94;81.35
2339;BME280;1180;51.438;6.978;2023-01-25T08:53:18;102101.28;;;3.88;81.44
2339;BME280;1180;51.438;6.978;2023-01-25T08:55:43;102104.69;;;3.92;81.54
2339;BME280;1180;51.438;6.978;2023-01-25T08:58:10;102108.91;;;3.88;81.36
2339;BME280;1180;51.438;6.978;2023-01-25T09:00:38;102100.44;;;3.89;81.52
2339;BME280;1180;51.438;6.978;2023-01-25T09:03:03;102102.13;;;3.87;81.53
2339;BME280;1180;51.438;6.978;2023-01-25T09:05:29;102101.31;;;3.82;81.43
2339;BME280;1180;51.438;6.978;2023-01-25T09:07:54;102095.38;;;3.83;80.76
2339;BME280;1180;51.438;6.978;2023-01-25T09:10:19;102088.59;;;3.82;80.90
2339;BME280;1180;51.438;6.978;2023-01-25T09:12:45;102089.44;;;3.87;80.55
2339;BME280;1180;51.438;6.978;2023-01-25T09:15:10;102091.16;;;3.79;81.00
2339;BME280;1180;51.438;6.978;2023-01-25T09:17:35;102085.22;;;3.83;81.63
2339;BME280;1180;51.438;6.978;2023-01-25T09:20:05;102093.69;;;3.79;81.89
2339;BME280;1180;51.438;6.978;2023-01-25T09:22:30;102085.22;;;3.83;81.76
2339;BME280;1180;51.438;6.978;2023-01-25T09:24:56;102076.72;;;3.90;81.40
2339;BME280;1180;51.438;6.978;2023-01-25T09:27:21;102077.59;;;3.91;81.68
2339;BME280;1180;51.438;6.978;2023-01-25T09:29:46;102074.19;;;3.98;81.67
2339;BME280;1180;51.438;6.978;2023-01-25T09:32:12;102078.44;;;4.01;81.81
2339;BME280;1180;51.438;6.978;2023-01-25T09:34:37;102067.41;;;4.03;81.16
2339;BME280;1180;51.438;6.978;2023-01-25T09:37:02;102064.88;;;4.05;80.57
2339;BME280;1180;51.438;6.978;2023-01-25T09:39:27;102067.41;;;4.00;80.32
2339;BME280;1180;51.438;6.978;2023-01-25T09:55:39;102062.31;;;4.08;80.83
2339;BME280;1180;51.438;6.978;2023-01-25T09:58:11;102058.91;;;4.11;80.44
2339;BME280;1180;51.438;6.978;2023-01-25T10:00:43;102060.59;;;4.15;80.24
2339;BME280;1180;51.438;6.978;2023-01-25T10:03:33;102056.34;;;4.11;80.37
2339;BME280;1180;51.438;6.978;2023-01-25T10:06:03;102053.00;;;4.04;79.82
2339;BME280;1180;51.438;6.978;2023-01-25T10:11:03;102046.25;;;4.03;80.22
2339;BME280;1180;51.438;6.978;2023-01-25T10:13:31;102046.22;;;4.04;80.11
2339;BME280;1180;51.438;6.978;2023-01-25T10:16:04;102043.66;;;4.08;79.55
2339;BME280;1180;51.438;6.978;2023-01-25T10:21:38;102049.59;;;4.14;79.11
2339;BME280;1180;51.438;6.978;2023-01-25T10:26:39;102041.94;;;4.21;79.14
2339;BME280;1180;51.438;6.978;2023-01-25T10:29:12;102046.19;;;4.18;78.91
2339;BME280;1180;51.438;6.978;2023-01-25T10:31:55;102046.16;;;4.25;78.63
2339;BME280;1180;51.438;6.978;2023-01-25T10:34:36;102038.53;;;4.22;78.59
2339;BME280;1180;51.438;6.978;2023-01-25T10:37:14;102030.91;;;4.22;78.37
2339;BME280;1180;51.438;6.978;2023-01-25T10:39:51;102032.63;;;4.21;78.40
2339;BME280;1180;51.438;6.978;2023-01-25T10:42:20;102019.94;;;4.16;77.57
2339;BME280;1180;51.438;6.978;2023-01-25T10:44:46;102012.31;;;4.18;77.45
2339;BME280;1180;51.438;6.978;2023-01-25T10:49:45;102007.22;;;4.19;78.64
2339;BME280;1180;51.438;6.978;2023-01-25T10:52:25;102006.38;;;4.22;78.13
2339;BME280;1180;51.438;6.978;2023-01-25T10:55:13;102002.09;;;4.26;77.73
2339;BME280;1180;51.438;6.978;2023-01-25T10:57:43;102003.84;;;4.10;77.73
2339;BME280;1180;51.438;6.978;2023-01-25T11:00:39;101997.06;;;4.13;77.71
2339;BME280;1180;51.438;6.978;2023-01-25T11:03:05;101993.69;;;4.11;78.04
2339;BME280;1180;51.438;6.978;2023-01-25T11:05:34;101986.06;;;4.07;78.29
2339;BME280;1180;51.438;6.978;2023-01-25T11:08:24;101975.91;;;4.10;77.69
2339;BME280;1180;51.438;6.978;2023-01-25T11:10:50;101980.16;;;4.09;77.67
2339;BME280;1180;51.438;6.978;2023-01-25T11:13:26;101977.66;;;3.95;77.96
2339;BME280;1180;51.438;6.978;2023-01-25T11:16:12;101975.06;;;4.09;78.22
2339;BME280;1180;51.438;6.978;2023-01-25T11:18:52;101968.28;;;4.11;78.19
2339;BME280;1180;51.438;6.978;2023-01-25T11:21:20;101962.31;;;4.22;77.89
2339;BME280;1180;51.438;6.978;2023-01-25T11:26:36;101952.13;;;4.26;77.78
2339;BME280;1180;51.438;6.978;2023-01-25T11:29:21;101953.00;;;4.19;77.90
2339;BME280;1180;51.438;6.978;2023-01-25T11:31:49;101939.41;;;4.25;78.05
2339;BME280;1180;51.438;6.978;2023-01-25T11:34:20;101932.63;;;4.24;78.54
2339;BME280;1180;51.438;6.978;2023-01-25T11:36:58;101928.38;;;4.26;78.15
2339;BME280;1180;51.438;6.978;2023-01-25T11:42:37;101914.81;;;4.30;78.34
2339;BME280;1180;51.438;6.978;2023-01-25T11:45:13;101908.00;;;4.37;78.31
2339;BME280;1180;51.438;6.978;2023-01-25T11:48:37;101912.19;;;4.45;77.87
2339;BME280;1180;51.438;6.978;2023-01-25T11:50:40;101901.16;;;4.45;76.91
2339;BME280;1180;51.438;6.978;2023-01-25T12:01:54;101867.38;;;4.32;77.75
2339;BME280;1180;51.438;6.978;2023-01-25T12:07:10;101864.41;;;4.85;78.03
2339;BME280;1180;51.438;6.978;2023-01-25T12:12:43;101841.53;;;4.80;76.29
2339;BME280;1180;51.438;6.978;2023-01-25T12:15:30;101838.31;;;4.64;75.99
2339;BME280;1180;51.438;6.978;2023-01-25T12:18:12;101826.47;;;4.60;75.74
2339;BME280;1180;51.438;6.978;2023-01-25T12:21:02;101825.81;;;4.39;76.12
2339;BME280;1180;51.438;6.978;2023-01-25T12:23:33;101820.00;;;4.23;76.60
2339;BME280;1180;51.438;6.978;2023-01-25T12:26:25;101805.53;;;4.33;76.68
2339;BME280;1180;51.438;6.978;2023-01-25T12:28:56;101800.44;;;4.33;76.24
2339;BME280;1180;51.438;6.978;2023-01-25T12:34:18;101791.97;;;4.31;76.71
2339;BME280;1180;51.438;6.978;2023-01-25T12:36:48;101787.78;;;4.25;76.95
2339;BME280;1180;51.438;6.978;2023-01-25T12:39:27;101789.47;;;4.26;77.31
2339;BME280;1180;51.438;6.978;2023-01-25T12:42:06;101775.06;;;4.25;77.47
2339;BME280;1180;51.438;6.978;2023-01-25T12:44:45;101771.50;;;4.46;76.93
2339;BME280;1180;51.438;6.978;2023-01-25T12:47:32;101771.56;;;4.39;76.44
2339;BME280;1180;51.438;6.978;2023-01-25T12:50:19;101761.50;;;4.25;76.83
2339;BME280;1180;51.438;6.978;2023-01-25T12:55:35;101747.13;;;4.24;77.39
2339;BME280;1180;51.438;6.978;2023-01-25T13:06:21;101721.69;;;4.28;78.75
2339;BME280;1180;51.438;6.978;2023-01-25T13:11:38;101714.84;;;4.33;78.39
2339;BME280;1180;51.438;6.978;2023-01-25T13:16:51;101704.72;;;4.30;78.83
2339;BME280;1180;51.438;6.978;2023-01-25T13:19:41;101704.78;;;4.23;78.74
2339;BME280;1180;51.438;6.978;2023-01-25T13:22:09;101698.81;;;4.27;78.87
2339;BME280;1180;51.438;6.978;2023-01-25T13:27:28;101681.00;;;4.28;79.05
2339;BME280;1180;51.438;6.978;2023-01-25T13:29:56;101695.41;;;4.31;78.89
2339;BME280;1180;51.438;6.978;2023-01-25T13:39:46;101688.63;;;4.27;80.57
2339;BME280;1180;51.438;6.978;2023-01-25T13:44:45;101688.63;;;4.27;79.78
2339;BME280;1180;51.438;6.978;2023-01-25T13:47:23;101680.25;;;4.20;79.65
2339;BME280;1180;51.438;6.978;2023-01-25T13:50:03;101671.84;;;4.13;79.65
2339;BME280;1180;51.438;6.978;2023-01-25T13:52:33;101674.34;;;4.18;80.00
2339;BME280;1180;51.438;6.978;2023-01-25T13:54:59;101673.50;;;4.17;80.29
2339;BME280;1180;51.438;6.978;2023-01-25T13:57:27;101669.19;;;4.24;79.87
2339;BME280;1180;51.438;6.978;2023-01-25T14:00:13;101666.59;;;4.29;79.85
2339;BME280;1180;51.438;6.978;2023-01-25T14:02:41;101669.16;;;4.27;78.98
2339;BME280;1180;51.438;6.978;2023-01-25T14:05:27;101664.91;;;4.28;79.11
2339;BME280;1180;51.438;6.978;2023-01-25T14:07:54;101663.22;;;4.27;79.39
2339;BME280;1180;51.438;6.978;2023-01-25T14:10:23;101664.91;;;4.31;79.19
2339;BME280;1180;51.438;6.978;2023-01-25T14:12:52;101657.31;;;4.25;78.81
2339;BME280;1180;51.438;6.978;2023-01-25T14:18:03;101658.16;;;4.27;79.72
2339;BME280;1180;51.438;6.978;2023-01-25T14:20:33;101649.66;;;4.31;79.24
2339;BME280;1180;51.438;6.978;2023-01-25T14:22:59;101648.84;;;4.26;79.27
2339;BME280;1180;51.438;6.978;2023-01-25T14:25:24;101653.16;;;4.17;79.88
2339;BME280;1180;51.438;6.978;2023-01-25T14:27:59;101660.75;;;4.21;79.84
2339;BME280;1180;51.438;6.978;2023-01-25T14:30:30;101654.75;;;4.28;79.51
2339;BME280;1180;51.438;6.978;2023-01-25T14:33:15;101663.25;;;4.24;79.80
2339;BME280;1180;51.438;6.978;2023-01-25T14:35:44;101644.63;;;4.25;79.53
2339;BME280;1180;51.438;6.978;2023-01-25T14:40:55;101642.16;;;4.17;79.53
2339;BME280;1180;51.438;6.978;2023-01-25T14:43:22;101632.06;;;4.09;79.95
2339;BME280;1180;51.438;6.978;2023-01-25T14:45:48;101634.56;;;4.17;79.83
2339;BME280;1180;51.438;6.978;2023-01-25T14:48:39;101630.34;;;4.11;80.08
2339;BME280;1180;51.438;6.978;2023-01-25T14:51:16;101626.25;;;4.01;80.07
2339;BME280;1180;51.438;6.978;2023-01-25T14:53:48;101625.34;;;4.03;79.83
2339;BME280;1180;51.438;6.978;2023-01-25T14:56:26;101619.31;;;4.14;80.06
2339;BME280;1180;51.438;6.978;2023-01-25T14:58:52;101623.56;;;4.13;80.28
2339;BME280;1180;51.438;6.978;2023-01-25T15:01:27;101625.25;;;4.14;79.70
2339;BME280;1180;51.438;6.978;2023-01-25T15:03:54;101610.00;;;4.16;79.88
2339;BME280;1180;51.438;6.978;2023-01-25T15:06:19;101614.19;;;4.18;79.84